Time;durP1;ratioP1;P1;durP2;ratioP2;P2;SDS_P1;SDS_P2;PMS_P1;PMS_P2;Temp;Humidity;BMP_temperature;BMP_pressure;BME280_temperature;BME280_humidity;BME280_pressure;Samples;Min_cycle;Max_cycle;Signal;HPM_P1;HPM_P2
2022/06/30 00:01:38;;;;;;;0.47;0.47;;;;;;;26.00;42.37;95056.84;5027816;28;20185;-68
2022/06/30 00:04:05;;;;;;;0.60;0.60;;;;;;;25.85;42.32;95049.56;5039603;28;20201;-66
2022/06/30 00:06:32;;;;;;;0.50;0.50;;;;;;;25.98;42.39;95053.72;5048350;28;20184;-68
2022/06/30 00:08:59;;;;;;;0.67;0.67;;;;;;;25.97;42.51;95044.09;5014808;28;20209;-69
2022/06/30 00:11:26;;;;;;;0.40;0.40;;;;;;;25.61;43.07;95023.69;5037017;28;20197;-67
2022/06/30 00:13:53;;;;;;;1.13;1.07;;;;;;;25.74;42.32;95037.81;5050421;28;20254;-68
2022/06/30 00:16:20;;;;;;;0.70;0.70;;;;;;;25.57;42.85;95059.59;5035023;28;20227;-67
2022/06/30 00:18:47;;;;;;;0.60;0.60;;;;;;;25.56;43.33;95052.69;5038918;28;20217;-67
2022/06/30 00:21:14;;;;;;;1.40;0.67;;;;;;;25.62;42.78;95045.94;5026581;28;20350;-67
2022/06/30 00:23:41;;;;;;;1.23;1.00;;;;;;;25.54;42.66;95054.94;5010547;28;20229;-68
2022/06/30 00:26:08;;;;;;;0.40;0.40;;;;;;;25.54;42.73;95049.56;5025295;28;20656;-69
2022/06/30 00:28:35;;;;;;;0.83;0.80;;;;;;;25.56;42.48;95045.44;5029975;28;20201;-67
2022/06/30 00:31:02;;;;;;;0.90;0.87;;;;;;;25.79;42.36;95042.91;5029929;28;20201;-67
2022/06/30 00:33:29;;;;;;;0.40;0.40;;;;;;;25.86;42.09;95040.38;5010137;28;20248;-68
2022/06/30 00:35:56;;;;;;;0.60;0.60;;;;;;;25.69;42.59;95019.28;5009826;28;20256;-68
2022/06/30 00:38:22;;;;;;;0.70;0.70;;;;;;;25.97;42.69;95039.50;5027857;28;20221;-67
2022/06/30 00:40:49;;;;;;;0.70;0.70;;;;;;;25.79;43.13;95035.63;5040420;28;20196;-68
2022/06/30 00:43:16;;;;;;;0.83;0.73;;;;;;;25.77;43.09;95037.88;5016023;28;20301;-68
2022/06/30 00:45:45;;;;;;;0.57;0.53;;;;;;;25.75;43.64;95034.75;5018711;28;20597;-68
2022/06/30 00:48:14;;;;;;;0.50;0.50;;;;;;;25.73;43.48;95042.38;5044872;28;20262;-67
2022/06/30 00:50:41;;;;;;;0.50;0.50;;;;;;;24.85;44.74;95052.72;5033823;28;20259;-68
2022/06/30 00:53:09;;;;;;;0.97;0.90;;;;;;;25.27;44.24;95034.28;5037786;28;20277;-68
2022/06/30 00:55:37;;;;;;;0.60;0.60;;;;;;;25.35;44.00;95052.91;5009935;28;20213;-67
2022/06/30 00:58:08;;;;;;;0.60;0.60;;;;;;;25.54;44.23;95049.56;5039436;28;20196;-68
2022/06/30 01:00:39;;;;;;;0.70;0.70;;;;;;;25.39;44.46;95053.00;5038287;28;20192;-68
2022/06/30 01:03:07;;;;;;;0.77;0.77;;;;;;;25.46;44.93;95048.63;5033054;28;20246;-68
2022/06/30 01:05:36;;;;;;;0.47;0.47;;;;;;;25.40;44.66;95049.22;5025067;28;20192;-68
2022/06/30 01:08:04;;;;;;;0.87;0.87;;;;;;;25.39;45.32;95047.66;5035900;28;20201;-68
2022/06/30 01:13:17;;;;;;;1.20;0.90;;;;;;;25.36;45.58;95037.59;5025399;28;20204;-68
2022/06/30 01:15:44;;;;;;;0.73;0.73;;;;;;;25.30;45.63;95034.38;5049427;28;20192;-67
2022/06/30 01:18:11;;;;;;;0.57;0.53;;;;;;;25.32;45.51;95032.13;5036859;28;20201;-68
2022/06/30 01:20:38;;;;;;;1.70;0.60;;;;;;;25.31;46.16;95040.53;5033804;28;20737;-67
2022/06/30 01:23:05;;;;;;;0.70;0.70;;;;;;;25.27;45.76;95045.03;5034984;28;20636;-67
2022/06/30 01:25:32;;;;;;;0.60;0.60;;;;;;;24.21;48.68;95058.09;5038130;28;20241;-68
2022/06/30 01:28:00;;;;;;;0.80;0.80;;;;;;;24.69;47.92;95049.94;5015080;28;20205;-68
2022/06/30 01:30:27;;;;;;;1.00;0.90;;;;;;;24.98;47.02;95038.13;5038472;28;20273;-67
2022/06/30 01:32:54;;;;;;;0.97;0.80;;;;;;;24.93;47.12;95047.19;5034911;28;20208;-67
2022/06/30 01:35:21;;;;;;;0.80;0.80;;;;;;;25.00;47.05;95035.88;5041215;28;20189;-66
2022/06/30 01:37:56;;;;;;;0.80;0.80;;;;;;;24.68;47.84;95039.56;5042594;28;20196;-68
2022/06/30 01:40:25;;;;;;;0.87;0.70;;;;;;;24.82;47.40;95038.06;5024151;28;20204;-67
2022/06/30 01:42:52;;;;;;;1.10;0.97;;;;;;;24.82;47.44;95040.75;5023447;28;20268;-67
2022/06/30 01:45:20;;;;;;;0.80;0.80;;;;;;;24.71;47.29;95020.91;5037937;28;20751;-67
2022/06/30 01:47:48;;;;;;;1.33;1.23;;;;;;;24.87;47.41;95040.50;5033101;28;20250;-68
2022/06/30 01:50:19;;;;;;;1.00;0.90;;;;;;;24.62;47.84;95030.19;5044419;28;20301;-68
2022/06/30 01:52:47;;;;;;;0.97;0.90;;;;;;;24.72;47.46;95024.38;5039703;28;20649;-67
2022/06/30 01:55:14;;;;;;;1.07;1.03;;;;;;;24.58;48.16;95027.41;5014658;28;20193;-67
2022/06/30 01:57:41;;;;;;;0.80;0.80;;;;;;;24.24;48.85;95035.97;5020395;28;20940;-68
2022/06/30 02:00:12;;;;;;;1.07;0.83;;;;;;;24.48;48.76;95035.94;5042646;28;20232;-67
2022/06/30 02:02:39;;;;;;;0.40;0.40;;;;;;;24.62;48.15;95038.22;5040237;28;20581;-68
2022/06/30 02:05:06;;;;;;;0.60;0.60;;;;;;;24.61;47.96;95039.34;5013232;28;20623;-67
2022/06/30 02:07:36;;;;;;;1.97;1.47;;;;;;;24.74;47.59;95039.00;5016094;28;20665;-67
2022/06/30 02:10:06;;;;;;;0.57;0.57;;;;;;;24.66;48.23;95042.56;5027446;28;20220;-67
2022/06/30 02:12:45;;;;;;;0.93;0.93;;;;;;;24.67;48.02;95044.13;5034409;28;20590;-67
2022/06/30 02:15:18;;;;;;;1.60;1.23;;;;;;;24.77;48.27;95034.84;5048886;28;20659;-68
2022/06/30 02:17:48;;;;;;;1.50;1.20;;;;;;;24.69;48.08;95041.88;5034334;28;20613;-69
2022/06/30 02:20:20;;;;;;;0.93;0.93;;;;;;;24.70;48.34;95040.81;5048877;28;20337;-67
2022/06/30 02:22:49;;;;;;;1.37;1.23;;;;;;;24.70;47.54;95043.50;5048596;28;20211;-69
2022/06/30 02:25:16;;;;;;;0.50;0.50;;;;;;;24.70;47.79;95043.50;5048321;28;20232;-69
2022/06/30 02:27:43;;;;;;;0.80;0.80;;;;;;;24.46;48.88;95042.75;5034171;28;20197;-66
2022/06/30 02:30:10;;;;;;;1.03;0.87;;;;;;;24.44;48.74;95051.13;5026171;28;20184;-68
2022/06/30 02:32:37;;;;;;;1.30;1.20;;;;;;;24.42;49.02;95053.34;5025769;28;20695;-66
2022/06/30 02:35:05;;;;;;;0.53;0.53;;;;;;;24.35;49.32;95063.88;5040279;28;20186;-66
2022/06/30 02:37:31;;;;;;;1.20;1.10;;;;;;;24.31;49.35;95049.56;5012643;28;20256;-67
2022/06/30 02:39:58;;;;;;;0.83;0.83;;;;;;;24.48;48.53;95052.00;5033167;28;20259;-67
2022/06/30 02:42:25;;;;;;;1.70;1.40;;;;;;;24.36;49.19;95054.69;5051883;28;20196;-68
2022/06/30 02:44:52;;;;;;;1.10;1.10;;;;;;;24.18;49.60;95056.06;5020330;28;20202;-68
2022/06/30 02:47:19;;;;;;;1.20;0.77;;;;;;;24.19;49.62;95049.59;5028430;28;20671;-68
2022/06/30 02:49:46;;;;;;;2.43;1.07;;;;;;;24.24;49.85;95059.28;5051612;28;20207;-68
2022/06/30 02:52:13;;;;;;;1.70;1.57;;;;;;;24.26;49.45;95065.88;5038011;28;20196;-68
2022/06/30 02:54:39;;;;;;;0.47;0.40;;;;;;;24.32;49.20;95061.88;5026633;28;20205;-66
2022/06/30 02:57:06;;;;;;;0.50;0.50;;;;;;;24.20;49.29;95059.19;5027659;28;20668;-66
2022/06/30 02:59:33;;;;;;;1.37;1.27;;;;;;;24.09;49.54;95039.34;5037779;28;20241;-68
2022/06/30 03:02:00;;;;;;;1.23;0.83;;;;;;;24.22;49.44;95051.59;5051343;28;20196;-68
2022/06/30 03:04:27;;;;;;;0.57;0.57;;;;;;;23.73;50.96;95061.53;5026302;28;20214;-67
2022/06/30 03:06:55;;;;;;;0.73;0.73;;;;;;;23.93;50.44;95051.81;5039926;28;20217;-67
2022/06/30 03:09:23;;;;;;;1.33;1.13;;;;;;;24.17;49.94;95059.09;5014961;28;20197;-67
2022/06/30 03:11:50;;;;;;;2.80;1.07;;;;;;;24.24;49.87;95057.41;5031632;28;20251;-67
2022/06/30 03:14:18;;;;;;;0.90;0.90;;;;;;;24.17;50.26;95051.84;5033604;28;21031;-67
2022/06/30 03:16:46;;;;;;;0.83;0.83;;;;;;;24.21;49.61;95047.38;5042906;28;20571;-68
2022/06/30 03:19:12;;;;;;;0.63;0.63;;;;;;;24.00;50.18;95052.03;5017548;28;20236;-69
2022/06/30 03:21:39;;;;;;;0.80;0.80;;;;;;;24.19;50.08;95054.97;5051100;28;20203;-68
2022/06/30 03:24:07;;;;;;;1.53;1.43;;;;;;;24.35;49.70;95057.72;5038070;28;20259;-67
2022/06/30 03:26:35;;;;;;;0.73;0.73;;;;;;;24.39;49.38;95047.91;5039588;28;20751;-67
2022/06/30 03:29:05;;;;;;;1.90;1.27;;;;;;;24.29;49.93;95049.13;5011493;28;20205;-67
2022/06/30 03:31:33;;;;;;;0.80;0.80;;;;;;;24.11;49.64;95050.50;5047258;28;20750;-67
2022/06/30 03:34:00;;;;;;;2.57;1.23;;;;;;;24.30;49.62;95064.09;5040799;28;20655;-68
2022/06/30 03:36:27;;;;;;;1.97;1.60;;;;;;;23.96;50.24;95061.84;5033402;28;20201;-68
2022/06/30 03:38:54;;;;;;;1.50;1.40;;;;;;;23.79;50.78;95054.06;5040792;28;20217;-68
2022/06/30 03:41:21;;;;;;;0.80;0.80;;;;;;;24.01;50.19;95069.72;5016812;28;20276;-67
2022/06/30 03:43:48;;;;;;;1.03;0.90;;;;;;;24.12;49.82;95060.09;5030506;28;20204;-68
2022/06/30 03:46:15;;;;;;;2.67;1.47;;;;;;;24.00;50.79;95058.22;5030613;28;20194;-69
2022/06/30 03:48:42;;;;;;;0.70;0.70;;;;;;;24.10;50.30;95070.38;5044279;28;20189;-67
2022/06/30 03:51:11;;;;;;;1.17;1.07;;;;;;;24.41;49.49;95065.19;5042216;28;20204;-68
2022/06/30 03:53:39;;;;;;;1.03;0.70;;;;;;;24.32;49.20;95067.22;5014198;28;20736;-67
2022/06/30 03:56:06;;;;;;;0.83;0.80;;;;;;;24.37;49.17;95056.28;5010820;28;20202;-68
2022/06/30 03:58:34;;;;;;;1.07;1.00;;;;;;;24.37;49.02;95066.19;5035894;28;20634;-68
2022/06/30 04:01:01;;;;;;;1.07;1.00;;;;;;;24.44;48.92;95067.19;5032937;28;20579;-67
2022/06/30 04:03:28;;;;;;;1.33;0.70;;;;;;;24.41;48.79;95067.09;5016037;28;20965;-68
2022/06/30 04:05:55;;;;;;;1.03;0.77;;;;;;;24.42;49.05;95058.72;5020936;28;20198;-70
2022/06/30 04:08:22;;;;;;;0.97;0.97;;;;;;;24.42;48.89;95069.41;5010387;28;20198;-67
2022/06/30 04:10:48;;;;;;;1.07;0.97;;;;;;;24.33;48.57;95066.09;5038446;28;20209;-66
2022/06/30 04:13:15;;;;;;;0.63;0.63;;;;;;;24.19;48.66;95065.69;5025648;28;20211;-68
2022/06/30 04:15:42;;;;;;;0.47;0.47;;;;;;;23.92;48.24;95060.97;5039029;28;20651;-67
2022/06/30 04:18:09;;;;;;;0.90;0.90;;;;;;;24.17;48.77;95067.91;5021883;28;20197;-68
2022/06/30 04:20:36;;;;;;;0.80;0.80;;;;;;;24.27;48.36;95061.31;5047423;28;20231;-66
2022/06/30 04:23:03;;;;;;;1.10;0.87;;;;;;;24.36;48.49;95068.09;5012185;28;20204;-68
2022/06/30 04:25:33;;;;;;;0.80;0.80;;;;;;;23.85;49.10;95050.81;5017579;28;20737;-68
2022/06/30 04:28:00;;;;;;;1.53;1.03;;;;;;;24.15;49.58;95064.78;5014054;28;20208;-68
2022/06/30 04:33:16;;;;;;;0.43;0.43;;;;;;;;;;5032715;28;20201;-68
2022/06/30 04:35:43;;;;;;;1.23;1.00;;;;;;;24.50;47.77;95068.53;5020009;28;20209;-66
2022/06/30 04:38:09;;;;;;;0.57;0.57;;;;;;;24.65;47.90;95067.78;5008973;28;20216;-67
2022/06/30 04:43:22;;;;;;;0.90;0.73;;;;;;;24.62;48.71;95073.84;5046873;28;20291;-65
2022/06/30 04:45:49;;;;;;;0.97;0.83;;;;;;;23.98;48.86;95054.25;5049807;28;20258;-67
2022/06/30 04:48:15;;;;;;;6.80;5.70;;;;;;;24.59;47.53;95069.16;5019592;28;20198;-66
2022/06/30 04:50:42;;;;;;;6.03;5.43;;;;;;;24.26;48.31;95073.91;5029543;28;20255;-67
2022/06/30 04:53:09;;;;;;;7.17;5.53;;;;;;;24.61;47.82;95076.88;5015890;28;20605;-67
2022/06/30 04:55:37;;;;;;;5.97;5.17;;;;;;;24.84;47.58;95069.91;5010051;28;20193;-67
2022/06/30 04:58:03;;;;;;;1.37;1.27;;;;;;;24.09;49.56;95071.47;5023402;28;20203;-67
2022/06/30 05:00:31;;;;;;;2.00;1.57;;;;;;;24.37;50.19;95067.00;5025811;28;20204;-69
2022/06/30 05:02:58;;;;;;;1.63;1.20;;;;;;;24.72;48.37;95067.25;5034367;28;20658;-67
2022/06/30 05:05:26;;;;;;;0.67;0.67;;;;;;;24.47;49.44;95074.53;5015776;28;21334;-67
2022/06/30 05:07:53;;;;;;;0.77;0.77;;;;;;;24.79;48.50;95062.88;5016337;28;20201;-68
2022/06/30 05:10:19;;;;;;;1.00;1.00;;;;;;;24.79;48.11;95068.25;5032255;28;20199;-68
2022/06/30 05:12:46;;;;;;;0.63;0.63;;;;;;;25.02;47.24;95069.25;5014149;28;20271;-69
2022/06/30 05:15:13;;;;;;;5.00;3.27;;;;;;;24.71;49.04;95071.03;5009753;28;20204;-70
2022/06/30 05:17:40;;;;;;;14.37;11.13;;;;;;;25.02;48.05;95071.94;5041258;28;20277;-70
2022/06/30 05:20:07;;;;;;;4.77;4.27;;;;;;;25.04;48.58;95069.72;5048990;28;20212;-69
2022/06/30 05:22:34;;;;;;;1.63;1.53;;;;;;;24.86;47.76;95073.81;5048944;28;20671;-69
2022/06/30 05:27:47;;;;;;;1.60;1.50;;;;;;;25.14;47.25;95073.03;5009543;28;20204;-67
2022/06/30 05:30:15;;;;;;;1.07;1.00;;;;;;;25.37;46.52;95077.47;5035408;28;20525;-67
2022/06/30 05:32:45;;;;;;;1.63;1.30;;;;;;;25.35;47.00;95086.97;5021783;28;20189;-68
2022/06/30 05:35:13;;;;;;;1.10;1.00;;;;;;;25.39;46.78;95079.84;5008756;28;20198;-68
2022/06/30 05:37:39;;;;;;;0.87;0.77;;;;;;;25.54;46.28;95095.19;5033391;28;20266;-70
2022/06/30 05:40:07;;;;;;;0.57;0.57;;;;;;;25.20;48.29;95093.88;5048957;28;20208;-68
2022/06/30 05:42:34;;;;;;;1.77;1.53;;;;;;;24.63;50.08;95077.31;5038705;28;20594;-68
2022/06/30 05:45:03;;;;;;;1.23;0.80;;;;;;;25.05;48.65;95076.63;5012504;28;20198;-68
2022/06/30 05:47:30;;;;;;;1.37;1.13;;;;;;;25.21;48.31;95087.41;5018389;28;20531;-68
2022/06/30 05:49:57;;;;;;;1.40;1.27;;;;;;;25.57;47.77;95081.84;5042675;28;20224;-68
2022/06/30 05:52:24;;;;;;;0.57;0.57;;;;;;;25.12;48.28;95092.13;5036653;28;20196;-67
2022/06/30 05:54:50;;;;;;;1.37;1.03;;;;;;;25.19;47.41;95094.22;5021610;28;20201;-66
2022/06/30 05:57:17;;;;;;;1.40;1.30;;;;;;;25.42;48.08;95101.41;5028343;28;20208;-69
2022/06/30 05:59:44;;;;;;;0.73;0.73;;;;;;;25.53;48.60;95101.69;5032677;28;20321;-68
2022/06/30 06:02:11;;;;;;;1.43;1.33;;;;;;;25.74;47.21;95096.84;5037279;28;20719;-68
2022/06/30 06:04:38;;;;;;;0.80;0.77;;;;;;;25.23;48.99;95103.94;5052798;28;20250;-67
2022/06/30 06:07:05;;;;;;;2.67;1.77;;;;;;;26.01;46.43;95095.97;5025632;28;20196;-69
2022/06/30 06:09:32;;;;;;;0.80;0.70;;;;;;;25.53;46.33;95101.69;5019060;28;20193;-69
2022/06/30 06:11:59;;;;;;;0.60;0.60;;;;;;;25.07;48.88;95093.16;5022033;28;20197;-68
2022/06/30 06:14:26;;;;;;;0.90;0.90;;;;;;;25.66;47.65;95095.09;5046988;28;20200;-68
2022/06/30 06:16:53;;;;;;;1.60;1.50;;;;;;;25.93;46.21;95108.47;5052442;28;20200;-68
2022/06/30 06:19:19;;;;;;;1.00;1.00;;;;;;;26.10;46.31;95099.28;5036539;28;20201;-69
2022/06/30 06:21:49;;;;;;;1.83;0.97;;;;;;;25.73;47.38;95100.69;5024777;28;20205;-68
2022/06/30 06:24:17;;;;;;;1.67;1.00;;;;;;;25.61;49.41;95104.22;5040198;28;20192;-68
2022/06/30 06:26:45;;;;;;;1.47;1.37;;;;;;;25.88;47.74;95097.19;5019078;28;20232;-67
2022/06/30 06:29:14;;;;;;;0.60;0.60;;;;;;;26.36;47.93;95102.22;5045071;28;20691;-68
2022/06/30 06:31:42;;;;;;;1.10;0.87;;;;;;;26.39;45.03;95084.59;5018619;28;20211;-68
2022/06/30 06:34:09;;;;;;;2.13;1.00;;;;;;;26.55;44.48;95090.75;5020822;28;20186;-68
2022/06/30 06:36:36;;;;;;;1.20;1.13;;;;;;;25.89;45.67;95104.13;5044274;28;20238;-66
2022/06/30 06:39:04;;;;;;;1.07;1.00;;;;;;;26.44;46.00;95090.47;5022140;28;20194;-68
2022/06/30 06:41:32;;;;;;;2.73;1.20;;;;;;;26.30;47.66;95095.53;5042306;28;20236;-69
2022/06/30 06:43:59;;;;;;;1.57;1.47;;;;;;;26.78;45.70;95076.28;5031817;28;20188;-67
2022/06/30 06:46:28;;;;;;;3.63;1.03;;;;;;;27.14;47.19;95069.69;5046680;28;20204;-68
2022/06/30 06:48:58;;;;;;;1.10;1.00;;;;;;;27.53;44.25;95073.91;5051835;28;20200;-68
2022/06/30 06:51:26;;;;;;;1.07;1.00;;;;;;;27.45;44.69;95083.00;5037645;28;20192;-69
2022/06/30 06:53:53;;;;;;;1.57;1.47;;;;;;;27.39;43.84;95089.03;5011785;28;20213;-68
2022/06/30 06:56:20;;;;;;;1.40;1.30;;;;;;;27.51;44.14;95080.78;5013549;28;20212;-68
2022/06/30 06:58:47;;;;;;;1.50;1.40;;;;;;;27.22;45.97;95081.38;5031871;28;20216;-69
2022/06/30 07:01:14;;;;;;;3.13;1.43;;;;;;;27.65;44.76;95076.44;5031600;28;20224;-69
2022/06/30 07:03:42;;;;;;;1.77;1.67;;;;;;;27.57;44.32;95079.38;5011977;28;20201;-68
2022/06/30 07:06:09;;;;;;;1.77;1.63;;;;;;;27.31;44.54;95077.34;5011722;28;20579;-69
2022/06/30 07:08:36;;;;;;;6.87;2.00;;;;;;;27.92;43.62;95077.25;5026351;28;20209;-67
2022/06/30 07:11:20;;;;;;;1.53;1.13;;;;;;;27.84;43.65;95078.28;5036880;28;20298;-69
2022/06/30 07:13:47;;;;;;;1.20;1.10;;;;;;;28.04;42.78;95070.94;5027644;28;20248;-68
2022/06/30 07:16:14;;;;;;;6.93;2.73;;;;;;;27.57;42.90;95073.97;5033559;28;20362;-69
2022/06/30 07:18:41;;;;;;;1.90;1.57;;;;;;;27.98;42.34;95073.16;5041291;28;20205;-68
2022/06/30 07:21:08;;;;;;;2.83;1.47;;;;;;;27.88;42.39;95073.75;5047321;28;20236;-67
2022/06/30 07:23:35;;;;;;;1.13;1.10;;;;;;;28.45;40.70;95073.47;5042210;28;20679;-68
2022/06/30 07:26:02;;;;;;;8.00;2.50;;;;;;;28.40;42.61;95073.78;5030137;28;20312;-69
2022/06/30 07:28:29;;;;;;;2.60;1.57;;;;;;;28.23;43.64;95062.78;5025435;28;20200;-68
2022/06/30 07:31:16;;;;;;;2.40;1.87;;;;;;;28.49;41.70;95070.81;5034859;28;20224;-69
2022/06/30 07:33:44;;;;;;;2.33;1.43;;;;;;;28.81;39.88;95072.84;5039160;28;20200;-68
2022/06/30 07:36:11;;;;;;;1.93;1.27;;;;;;;28.53;41.52;95075.16;5050413;28;20204;-70
2022/06/30 07:38:41;;;;;;;1.03;0.93;;;;;;;28.68;39.88;95070.75;5024131;28;20201;-68
2022/06/30 07:41:08;;;;;;;2.53;1.20;;;;;;;28.74;40.25;95069.28;5050754;28;20228;-68
2022/06/30 07:43:35;;;;;;;1.33;1.23;;;;;;;28.67;42.34;95072.66;5017459;28;20197;-68
2022/06/30 07:46:03;;;;;;;1.53;1.27;;;;;;;28.90;41.17;95070.63;5042116;28;20292;-67
2022/06/30 07:48:31;;;;;;;2.47;1.87;;;;;;;29.13;40.54;95067.06;5050720;28;20248;-67
2022/06/30 07:50:58;;;;;;;7.37;2.77;;;;;;;29.24;40.73;95062.56;5040397;28;20255;-68
2022/06/30 07:53:25;;;;;;;1.27;1.17;;;;;;;28.90;39.33;95054.44;5047058;28;20208;-70
2022/06/30 07:55:52;;;;;;;1.47;1.20;;;;;;;29.31;39.67;95046.44;5027071;28;20209;-69
2022/06/30 07:58:19;;;;;;;1.60;1.23;;;;;;;28.77;38.28;95052.38;5038489;28;20263;-68
2022/06/30 08:00:46;;;;;;;10.40;1.67;;;;;;;29.03;39.42;95040.72;5031061;28;20232;-67
2022/06/30 08:03:13;;;;;;;1.00;0.93;;;;;;;28.79;39.34;95055.47;5036434;28;20185;-69
2022/06/30 08:05:40;;;;;;;1.07;1.00;;;;;;;29.15;38.74;95059.38;5041769;28;20240;-68
2022/06/30 08:08:07;;;;;;;1.03;0.93;;;;;;;29.60;37.35;95053.69;5023087;28;20707;-68
2022/06/30 08:10:34;;;;;;;1.37;1.27;;;;;;;29.51;38.06;95032.38;5037362;28;20204;-68
2022/06/30 08:13:01;;;;;;;7.07;1.67;;;;;;;29.92;38.29;95057.47;5038930;28;20198;-67
2022/06/30 08:15:28;;;;;;;2.77;1.83;;;;;;;29.99;37.96;95054.81;5022094;28;20276;-70
2022/06/30 08:17:54;;;;;;;1.77;1.67;;;;;;;29.68;37.59;95048.00;5040219;28;20648;-68
2022/06/30 08:20:21;;;;;;;1.33;1.23;;;;;;;29.78;38.71;95030.34;5020355;28;20236;-69
2022/06/30 08:22:48;;;;;;;1.63;1.53;;;;;;;29.99;38.65;95049.41;5032211;28;20197;-68
2022/06/30 08:25:15;;;;;;;2.23;1.60;;;;;;;30.41;38.39;95021.94;5049494;28;20327;-69
2022/06/30 08:27:41;;;;;;;1.77;1.67;;;;;;;30.62;37.78;95033.63;5036280;28;20624;-69
2022/06/30 08:30:09;;;;;;;1.20;1.10;;;;;;;30.72;37.16;95035.63;5043528;28;20627;-67
2022/06/30 08:32:36;;;;;;;1.43;1.27;;;;;;;30.34;36.57;95041.59;5043588;28;20188;-69
2022/06/30 08:35:03;;;;;;;1.80;1.67;;;;;;;30.80;35.51;95050.72;5044584;28;20193;-68
2022/06/30 08:37:30;;;;;;;1.77;1.27;;;;;;;30.72;36.71;95049.16;5019252;28;20209;-68
2022/06/30 08:42:43;;;;;;;0.80;0.80;;;;;;;30.58;35.82;95053.72;5038161;28;20209;-67
2022/06/30 08:45:17;;;;;;;0.77;0.77;;;;;;;30.06;35.45;95049.47;5047982;28;20189;-67
2022/06/30 08:47:46;;;;;;;1.93;1.37;;;;;;;30.59;35.60;95056.03;5038483;28;20203;-67
2022/06/30 08:50:15;;;;;;;1.00;1.00;;;;;;;30.60;34.76;95041.34;5039476;28;20190;-68
2022/06/30 08:52:56;;;;;;;1.70;1.50;;;;;;;31.12;34.97;95039.25;5020590;28;20201;-67
2022/06/30 08:55:28;;;;;;;1.40;1.30;;;;;;;31.08;35.43;95049.31;5032484;28;20551;-68
2022/06/30 08:58:00;;;;;;;1.37;1.23;;;;;;;31.07;34.89;95051.25;5037552;28;20200;-69
2022/06/30 09:00:28;;;;;;;0.80;0.80;;;;;;;30.88;33.17;95036.09;5017483;28;20243;-67
2022/06/30 09:02:56;;;;;;;0.43;0.43;;;;;;;30.88;33.63;95048.84;5029642;28;20284;-67
2022/06/30 09:05:23;;;;;;;8.47;1.10;;;;;;;31.30;32.98;95040.88;5035631;28;20205;-67
2022/06/30 09:07:50;;;;;;;1.53;1.30;;;;;;;31.16;32.55;95037.34;5032344;28;20227;-68
2022/06/30 09:10:46;;;;;;;0.97;0.93;;;;;;;31.17;33.72;95041.63;5037262;28;20219;-68
2022/06/30 09:13:13;;;;;;;1.00;1.00;;;;;;;31.33;34.46;95039.34;5016874;28;20189;-68
2022/06/30 09:15:40;;;;;;;1.07;1.03;;;;;;;31.33;36.03;95039.34;5029473;28;20426;-69
2022/06/30 09:18:19;;;;;;;1.20;1.20;;;;;;;31.94;34.93;95032.88;5021025;28;20196;-67
2022/06/30 09:20:46;;;;;;;0.97;0.80;;;;;;;31.73;33.81;95030.91;5035728;28;20216;-68
2022/06/30 09:23:27;;;;;;;1.00;0.70;;;;;;;31.93;33.77;95026.69;5043677;28;20198;-68
2022/06/30 09:25:56;;;;;;;0.83;0.83;;;;;;;32.14;33.15;95028.59;5042738;28;20240;-69
2022/06/30 09:28:42;;;;;;;1.57;1.43;;;;;;;32.25;31.45;95024.72;5021871;28;20196;-67
2022/06/30 09:31:34;;;;;;;1.60;1.27;;;;;;;32.24;32.05;95016.97;5035115;28;20287;-67
2022/06/30 09:34:19;;;;;;;0.90;0.90;;;;;;;32.03;31.80;95022.41;5028082;28;20711;-67
2022/06/30 09:36:51;;;;;;;0.80;0.80;;;;;;;32.07;31.30;95017.75;5014074;28;20197;-67
2022/06/30 09:39:21;;;;;;;0.83;0.83;;;;;;;32.04;32.47;95019.34;5021154;28;20208;-68
2022/06/30 09:41:50;;;;;;;0.83;0.83;;;;;;;32.63;32.41;95023.88;5050462;28;20208;-68
2022/06/30 09:44:22;;;;;;;1.53;1.40;;;;;;;32.42;33.25;95018.53;5041970;28;20204;-67
2022/06/30 09:47:03;;;;;;;1.23;1.00;;;;;;;32.76;31.44;95019.56;5036727;28;20231;-67
2022/06/30 09:49:36;;;;;;;0.60;0.60;;;;;;;33.12;29.44;95014.03;5029088;28;20627;-68
2022/06/30 09:52:13;;;;;;;3.30;1.30;;;;;;;32.55;27.62;95022.38;5012914;28;20198;-67
2022/06/30 09:54:53;;;;;;;0.90;0.70;;;;;;;32.90;29.56;95023.41;5023646;28;20205;-69
2022/06/30 09:57:23;;;;;;;1.03;0.93;;;;;;;32.93;29.65;95020.66;5032807;28;20902;-67
2022/06/30 10:00:20;;;;;;;0.90;0.80;;;;;;;33.08;30.08;95005.91;5038824;28;20595;-67
2022/06/30 10:02:49;;;;;;;0.60;0.60;;;;;;;33.15;28.20;95003.13;5039537;28;20208;-68
2022/06/30 10:05:18;;;;;;;0.80;0.80;;;;;;;33.22;26.73;95011.25;5028563;28;20260;-68
2022/06/30 10:07:45;;;;;;;1.53;1.10;;;;;;;33.47;28.15;94995.59;5013390;28;20248;-67
2022/06/30 10:10:15;;;;;;;0.73;0.73;;;;;;;33.19;28.61;95005.84;5022296;28;20283;-68
2022/06/30 10:12:45;;;;;;;0.70;0.70;;;;;;;33.47;28.26;95008.38;5046935;28;20193;-67
2022/06/30 10:15:13;;;;;;;0.77;0.77;;;;;;;33.17;28.77;95002.75;5023905;28;20664;-69
2022/06/30 10:17:47;;;;;;;1.23;1.07;;;;;;;33.38;29.98;94989.00;5043185;28;20309;-68
2022/06/30 10:20:19;;;;;;;1.20;1.10;;;;;;;33.56;28.77;95003.28;5042504;28;20604;-68
2022/06/30 10:22:46;;;;;;;1.30;1.10;;;;;;;33.34;28.58;95001.88;5052207;28;20196;-68
2022/06/30 10:25:15;;;;;;;1.70;1.03;;;;;;;33.82;27.81;94983.69;5052102;28;20793;-68
2022/06/30 10:27:42;;;;;;;1.37;1.10;;;;;;;34.07;26.40;94984.25;5038327;28;20235;-67
2022/06/30 10:30:12;;;;;;;1.00;1.00;;;;;;;33.74;27.00;94993.81;5039562;28;20233;-67
2022/06/30 10:32:48;;;;;;;0.70;0.70;;;;;;;33.90;24.90;94990.59;5025656;28;20267;-69
2022/06/30 10:35:26;;;;;;;1.07;0.97;;;;;;;34.03;23.78;94994.41;5025614;28;20208;-67
2022/06/30 10:38:05;;;;;;;0.77;0.73;;;;;;;33.75;23.97;94991.88;5051959;28;20223;-70
2022/06/30 10:40:58;;;;;;;0.63;0.63;;;;;;;34.00;23.93;94981.59;5051968;28;20576;-69
2022/06/30 10:43:32;;;;;;;0.70;0.70;;;;;;;34.15;26.00;94971.34;5023924;28;20614;-69
2022/06/30 10:46:01;;;;;;;0.57;0.57;;;;;;;34.35;26.99;94983.19;5052105;28;20265;-68
2022/06/30 10:48:53;;;;;;;0.80;0.80;;;;;;;34.66;26.28;94982.88;5051220;28;20270;-69
2022/06/30 10:51:25;;;;;;;0.77;0.63;;;;;;;34.61;26.02;94928.13;5051563;28;20236;-67
2022/06/30 10:53:56;;;;;;;0.63;0.63;;;;;;;35.07;25.62;94973.84;5023889;28;20675;-67
2022/06/30 10:56:47;;;;;;;1.60;1.00;;;;;;;35.15;25.22;94969.81;5023385;28;20275;-67
2022/06/30 10:59:14;;;;;;;0.53;0.50;;;;;;;35.13;24.59;94966.75;5051484;28;20290;-68
2022/06/30 11:02:12;;;;;;;0.63;0.50;;;;;;;35.17;25.66;94956.56;5019927;28;20213;-67
2022/06/30 11:04:44;;;;;;;0.70;0.70;;;;;;;34.87;25.59;94964.75;5045415;28;20694;-68
2022/06/30 11:07:24;;;;;;;0.40;0.40;;;;;;;35.18;26.22;94964.31;5050289;28;20193;-68
2022/06/30 11:09:52;;;;;;;0.60;0.60;;;;;;;34.23;24.13;94965.47;5019556;28;20205;-68
2022/06/30 11:12:23;;;;;;;1.33;0.60;;;;;;;34.85;24.57;94953.47;5031385;28;20193;-69
2022/06/30 11:14:55;;;;;;;1.50;0.80;;;;;;;34.34;26.07;94957.94;5024919;28;20190;-67
2022/06/30 11:17:24;;;;;;;1.10;0.80;;;;;;;34.55;24.99;94938.69;5011657;28;20594;-68
2022/06/30 11:20:15;;;;;;;0.50;0.50;;;;;;;34.74;25.95;94940.00;5011457;28;20680;-68
2022/06/30 11:22:44;;;;;;;0.80;0.80;;;;;;;34.74;26.76;94940.75;5039493;28;20778;-67
2022/06/30 11:28:12;;;;;;;0.60;0.60;;;;;;;35.16;25.30;94939.47;5017128;28;20280;-69
2022/06/30 11:30:39;;;;;;;0.40;0.40;;;;;;;35.08;25.53;94932.56;5020435;28;20213;-68
2022/06/30 11:33:07;;;;;;;0.63;0.63;;;;;;;35.40;25.28;94934.84;5030728;28;20664;-66
2022/06/30 11:35:33;;;;;;;0.57;0.57;;;;;;;34.83;24.04;94936.78;5051151;28;20686;-68
2022/06/30 11:38:00;;;;;;;0.70;0.60;;;;;;;35.34;25.48;94923.63;5050880;28;20203;-67
2022/06/30 11:40:32;;;;;;;0.57;0.57;;;;;;;35.52;24.59;94926.09;5036392;28;20264;-69
2022/06/30 11:42:58;;;;;;;0.60;0.60;;;;;;;35.50;25.28;94929.25;5025239;28;20217;-67
2022/06/30 11:45:25;;;;;;;0.80;0.80;;;;;;;35.35;24.73;94927.09;5038601;28;20264;-70
2022/06/30 11:47:54;;;;;;;0.60;0.60;;;;;;;35.37;24.92;94917.34;5036544;28;20212;-68
2022/06/30 11:50:23;;;;;;;2.73;1.47;;;;;;;35.47;25.40;94926.56;5045891;28;20197;-67
2022/06/30 11:52:52;;;;;;;0.77;0.73;;;;;;;35.97;24.39;94932.75;5031212;28;20650;-67
2022/06/30 11:55:23;;;;;;;0.80;0.80;;;;;;;35.88;24.62;94924.31;5013464;28;20198;-67
2022/06/30 11:57:50;;;;;;;0.57;0.57;;;;;;;36.16;24.38;94926.56;5038677;28;20590;-68
2022/06/30 12:00:23;;;;;;;0.57;0.50;;;;;;;36.08;22.63;94933.34;5016124;28;20194;-67